sensor_id;sensor_type;location;lat;lon;timestamp;P1;durP1;ratioP1;P2;durP2;ratioP2
19388;SDS011;9830;41.876;23.474;2022-12-07T00:01:09;3.60;;;0.47;;
19388;SDS011;9830;41.876;23.474;2022-12-07T00:03:36;0.00;;;0.00;;
19388;SDS011;9830;41.876;23.474;2022-12-07T00:06:03;2.77;;;0.57;;
19388;SDS011;9830;41.876;23.474;2022-12-07T00:08:30;0.27;;;0.20;;
19388;SDS011;9830;41.876;23.474;2022-12-07T00:11:01;1.03;;;0.67;;
19388;SDS011;9830;41.876;23.474;2022-12-07T00:13:34;0.00;;;0.00;;
19388;SDS011;9830;41.876;23.474;2022-12-07T00:16:04;1.17;;;1.03;;
19388;SDS011;9830;41.876;23.474;2022-12-07T00:18:37;2.13;;;0.87;;
19388;SDS011;9830;41.876;23.474;2022-12-07T00:21:04;0.10;;;0.10;;
19388;SDS011;9830;41.876;23.474;2022-12-07T00:23:32;0.87;;;0.87;;
19388;SDS011;9830;41.876;23.474;2022-12-07T00:26:09;0.30;;;0.10;;
19388;SDS011;9830;41.876;23.474;2022-12-07T00:28:37;0.87;;;0.87;;
19388;SDS011;9830;41.876;23.474;2022-12-07T00:31:04;0.47;;;0.43;;
19388;SDS011;9830;41.876;23.474;2022-12-07T00:33:35;0.13;;;0.13;;
19388;SDS011;9830;41.876;23.474;2022-12-07T00:36:02;0.77;;;0.77;;
19388;SDS011;9830;41.876;23.474;2022-12-07T00:38:31;3.90;;;0.73;;
19388;SDS011;9830;41.876;23.474;2022-12-07T00:41:02;0.37;;;0.37;;
19388;SDS011;9830;41.876;23.474;2022-12-07T00:43:29;2.97;;;0.90;;
19388;SDS011;9830;41.876;23.474;2022-12-07T00:45:55;0.00;;;0.00;;
19388;SDS011;9830;41.876;23.474;2022-12-07T00:48:21;4.83;;;1.40;;
19388;SDS011;9830;41.876;23.474;2022-12-07T00:50:47;0.87;;;0.80;;
19388;SDS011;9830;41.876;23.474;2022-12-07T00:53:14;2.00;;;1.70;;
19388;SDS011;9830;41.876;23.474;2022-12-07T00:55:40;21.10;;;2.83;;
19388;SDS011;9830;41.876;23.474;2022-12-07T00:58:06;0.10;;;0.10;;
19388;SDS011;9830;41.876;23.474;2022-12-07T01:00:32;0.50;;;0.50;;
19388;SDS011;9830;41.876;23.474;2022-12-07T01:02:58;1.13;;;1.03;;
19388;SDS011;9830;41.876;23.474;2022-12-07T01:05:24;0.30;;;0.30;;
19388;SDS011;9830;41.876;23.474;2022-12-07T01:07:50;2.83;;;1.30;;
19388;SDS011;9830;41.876;23.474;2022-12-07T01:10:15;0.63;;;0.57;;
19388;SDS011;9830;41.876;23.474;2022-12-07T01:12:41;2.70;;;0.47;;
19388;SDS011;9830;41.876;23.474;2022-12-07T01:15:07;0.20;;;0.20;;
19388;SDS011;9830;41.876;23.474;2022-12-07T01:17:33;0.50;;;0.50;;
19388;SDS011;9830;41.876;23.474;2022-12-07T01:20:00;2.20;;;1.53;;
19388;SDS011;9830;41.876;23.474;2022-12-07T01:22:26;3.50;;;1.00;;
19388;SDS011;9830;41.876;23.474;2022-12-07T01:24:52;1.00;;;0.90;;
19388;SDS011;9830;41.876;23.474;2022-12-07T01:27:18;0.00;;;0.00;;
19388;SDS011;9830;41.876;23.474;2022-12-07T01:29:43;0.37;;;0.37;;
19388;SDS011;9830;41.876;23.474;2022-12-07T01:32:09;0.67;;;0.43;;
19388;SDS011;9830;41.876;23.474;2022-12-07T01:34:35;2.07;;;1.20;;
19388;SDS011;9830;41.876;23.474;2022-12-07T01:37:01;0.70;;;0.70;;
19388;SDS011;9830;41.876;23.474;2022-12-07T01:39:27;0.90;;;0.87;;
19388;SDS011;9830;41.876;23.474;2022-12-07T01:41:52;0.00;;;0.00;;
19388;SDS011;9830;41.876;23.474;2022-12-07T01:46:49;0.50;;;0.50;;
19388;SDS011;9830;41.876;23.474;2022-12-07T01:54:47;1.13;;;0.93;;
19388;SDS011;9830;41.876;23.474;2022-12-07T01:57:16;1.23;;;0.90;;
19388;SDS011;9830;41.876;23.474;2022-12-07T01:59:43;0.43;;;0.43;;
19388;SDS011;9830;41.876;23.474;2022-12-07T02:02:13;6.87;;;0.97;;
19388;SDS011;9830;41.876;23.474;2022-12-07T02:04:58;1.40;;;0.53;;
19388;SDS011;9830;41.876;23.474;2022-12-07T02:07:25;0.03;;;0.03;;
19388;SDS011;9830;41.876;23.474;2022-12-07T02:09:52;3.50;;;0.77;;
19388;SDS011;9830;41.876;23.474;2022-12-07T02:12:18;0.60;;;0.60;;
19388;SDS011;9830;41.876;23.474;2022-12-07T02:14:45;1.70;;;0.73;;
19388;SDS011;9830;41.876;23.474;2022-12-07T02:17:17;0.00;;;0.00;;
19388;SDS011;9830;41.876;23.474;2022-12-07T02:27:52;0.90;;;0.63;;
19388;SDS011;9830;41.876;23.474;2022-12-07T02:30:28;0.87;;;0.87;;
19388;SDS011;9830;41.876;23.474;2022-12-07T02:35:45;1.83;;;1.07;;
19388;SDS011;9830;41.876;23.474;2022-12-07T02:43:38;2.73;;;1.40;;
19388;SDS011;9830;41.876;23.474;2022-12-07T02:46:09;0.70;;;0.53;;
19388;SDS011;9830;41.876;23.474;2022-12-07T02:48:39;0.67;;;0.67;;
19388;SDS011;9830;41.876;23.474;2022-12-07T02:51:07;0.80;;;0.80;;
19388;SDS011;9830;41.876;23.474;2022-12-07T02:53:34;2.67;;;0.20;;
19388;SDS011;9830;41.876;23.474;2022-12-07T03:01:26;0.70;;;0.53;;
19388;SDS011;9830;41.876;23.474;2022-12-07T03:07:06;0.20;;;0.20;;
19388;SDS011;9830;41.876;23.474;2022-12-07T03:12:35;0.10;;;0.10;;
19388;SDS011;9830;41.876;23.474;2022-12-07T03:15:14;13.20;;;2.53;;
19388;SDS011;9830;41.876;23.474;2022-12-07T03:18:02;0.00;;;0.00;;
19388;SDS011;9830;41.876;23.474;2022-12-07T03:20:30;2.03;;;1.77;;
19388;SDS011;9830;41.876;23.474;2022-12-07T03:22:58;1.13;;;0.83;;
19388;SDS011;9830;41.876;23.474;2022-12-07T03:25:25;4.73;;;1.73;;
19388;SDS011;9830;41.876;23.474;2022-12-07T03:28:02;1.20;;;1.20;;
19388;SDS011;9830;41.876;23.474;2022-12-07T03:30:53;0.53;;;0.20;;
19388;SDS011;9830;41.876;23.474;2022-12-07T03:33:46;1.30;;;0.93;;
19388;SDS011;9830;41.876;23.474;2022-12-07T03:36:35;0.57;;;0.40;;
19388;SDS011;9830;41.876;23.474;2022-12-07T03:41:56;0.60;;;0.50;;
19388;SDS011;9830;41.876;23.474;2022-12-07T03:44:24;2.07;;;1.43;;
19388;SDS011;9830;41.876;23.474;2022-12-07T03:49:50;0.10;;;0.10;;
19388;SDS011;9830;41.876;23.474;2022-12-07T03:53:08;0.00;;;0.00;;
19388;SDS011;9830;41.876;23.474;2022-12-07T03:55:28;0.83;;;0.83;;
19388;SDS011;9830;41.876;23.474;2022-12-07T03:58:07;0.40;;;0.40;;
19388;SDS011;9830;41.876;23.474;2022-12-07T04:00:35;2.43;;;0.67;;
19388;SDS011;9830;41.876;23.474;2022-12-07T04:03:02;0.43;;;0.40;;
19388;SDS011;9830;41.876;23.474;2022-12-07T04:05:28;4.43;;;1.03;;
19388;SDS011;9830;41.876;23.474;2022-12-07T04:07:54;0.87;;;0.87;;
19388;SDS011;9830;41.876;23.474;2022-12-07T04:10:19;1.37;;;0.83;;
19388;SDS011;9830;41.876;23.474;2022-12-07T04:12:45;2.80;;;1.13;;
19388;SDS011;9830;41.876;23.474;2022-12-07T04:15:11;0.20;;;0.20;;
19388;SDS011;9830;41.876;23.474;2022-12-07T04:17:37;0.53;;;0.53;;
19388;SDS011;9830;41.876;23.474;2022-12-07T04:20:04;0.40;;;0.20;;
19388;SDS011;9830;41.876;23.474;2022-12-07T04:22:30;1.30;;;1.07;;
19388;SDS011;9830;41.876;23.474;2022-12-07T04:24:56;1.70;;;1.60;;
19388;SDS011;9830;41.876;23.474;2022-12-07T04:27:22;0.57;;;0.57;;
19388;SDS011;9830;41.876;23.474;2022-12-07T04:29:47;1.97;;;1.43;;
19388;SDS011;9830;41.876;23.474;2022-12-07T04:32:13;1.00;;;0.90;;
19388;SDS011;9830;41.876;23.474;2022-12-07T04:34:39;1.97;;;0.90;;
19388;SDS011;9830;41.876;23.474;2022-12-07T04:37:04;0.73;;;0.50;;
19388;SDS011;9830;41.876;23.474;2022-12-07T04:39:31;1.47;;;0.67;;
19388;SDS011;9830;41.876;23.474;2022-12-07T04:41:57;30.53;;;2.80;;
19388;SDS011;9830;41.876;23.474;2022-12-07T04:44:24;5.27;;;1.30;;
19388;SDS011;9830;41.876;23.474;2022-12-07T04:46:51;1.10;;;0.90;;
19388;SDS011;9830;41.876;23.474;2022-12-07T04:49:17;6.17;;;1.30;;
19388;SDS011;9830;41.876;23.474;2022-12-07T04:51:43;2.07;;;0.53;;
19388;SDS011;9830;41.876;23.474;2022-12-07T04:54:09;3.50;;;0.87;;
19388;SDS011;9830;41.876;23.474;2022-12-07T04:56:35;0.20;;;0.20;;
19388;SDS011;9830;41.876;23.474;2022-12-07T04:59:02;1.53;;;0.83;;
19388;SDS011;9830;41.876;23.474;2022-12-07T05:01:28;0.47;;;0.43;;
19388;SDS011;9830;41.876;23.474;2022-12-07T05:03:54;0.57;;;0.57;;
19388;SDS011;9830;41.876;23.474;2022-12-07T05:06:20;1.17;;;0.30;;
19388;SDS011;9830;41.876;23.474;2022-12-07T05:08:45;0.93;;;0.77;;
19388;SDS011;9830;41.876;23.474;2022-12-07T05:11:11;3.47;;;0.90;;
19388;SDS011;9830;41.876;23.474;2022-12-07T05:13:56;1.60;;;0.80;;
19388;SDS011;9830;41.876;23.474;2022-12-07T05:16:22;1.53;;;0.93;;
19388;SDS011;9830;41.876;23.474;2022-12-07T05:18:48;1.73;;;1.60;;
19388;SDS011;9830;41.876;23.474;2022-12-07T05:21:13;2.33;;;1.43;;
19388;SDS011;9830;41.876;23.474;2022-12-07T05:23:39;0.77;;;0.77;;
19388;SDS011;9830;41.876;23.474;2022-12-07T05:26:05;3.63;;;1.27;;
19388;SDS011;9830;41.876;23.474;2022-12-07T05:28:30;5.33;;;2.33;;
19388;SDS011;9830;41.876;23.474;2022-12-07T05:30:56;11.03;;;4.33;;
19388;SDS011;9830;41.876;23.474;2022-12-07T05:33:22;1.00;;;1.00;;
19388;SDS011;9830;41.876;23.474;2022-12-07T05:35:47;1.87;;;1.77;;
19388;SDS011;9830;41.876;23.474;2022-12-07T05:38:13;3.27;;;1.17;;
19388;SDS011;9830;41.876;23.474;2022-12-07T05:40:39;6.93;;;1.70;;
19388;SDS011;9830;41.876;23.474;2022-12-07T05:43:04;1.73;;;1.63;;
19388;SDS011;9830;41.876;23.474;2022-12-07T05:45:30;2.40;;;1.10;;
19388;SDS011;9830;41.876;23.474;2022-12-07T05:47:56;1.43;;;1.07;;
19388;SDS011;9830;41.876;23.474;2022-12-07T05:50:21;2.93;;;2.03;;
19388;SDS011;9830;41.876;23.474;2022-12-07T05:52:47;4.20;;;3.17;;
19388;SDS011;9830;41.876;23.474;2022-12-07T05:55:13;0.70;;;0.60;;
19388;SDS011;9830;41.876;23.474;2022-12-07T05:57:38;1.70;;;1.50;;
19388;SDS011;9830;41.876;23.474;2022-12-07T06:00:04;0.93;;;0.93;;
19388;SDS011;9830;41.876;23.474;2022-12-07T06:02:30;0.87;;;0.87;;
19388;SDS011;9830;41.876;23.474;2022-12-07T06:04:56;4.73;;;2.67;;
19388;SDS011;9830;41.876;23.474;2022-12-07T06:07:22;0.93;;;0.83;;
19388;SDS011;9830;41.876;23.474;2022-12-07T06:09:47;1.07;;;0.50;;
19388;SDS011;9830;41.876;23.474;2022-12-07T06:12:13;2.57;;;1.00;;
19388;SDS011;9830;41.876;23.474;2022-12-07T06:14:57;2.22;;;1.33;;
19388;SDS011;9830;41.876;23.474;2022-12-07T06:17:24;0.90;;;0.90;;
19388;SDS011;9830;41.876;23.474;2022-12-07T06:19:50;3.07;;;1.97;;
19388;SDS011;9830;41.876;23.474;2022-12-07T06:22:16;1.60;;;1.03;;
19388;SDS011;9830;41.876;23.474;2022-12-07T06:24:49;1.30;;;1.20;;
19388;SDS011;9830;41.876;23.474;2022-12-07T06:27:14;8.37;;;2.37;;
19388;SDS011;9830;41.876;23.474;2022-12-07T06:29:40;7.97;;;3.07;;
19388;SDS011;9830;41.876;23.474;2022-12-07T06:32:06;1.80;;;1.17;;
19388;SDS011;9830;41.876;23.474;2022-12-07T06:34:32;0.70;;;0.70;;
19388;SDS011;9830;41.876;23.474;2022-12-07T06:36:57;4.33;;;1.80;;
19388;SDS011;9830;41.876;23.474;2022-12-07T06:39:24;3.47;;;2.43;;
19388;SDS011;9830;41.876;23.474;2022-12-07T06:41:51;7.97;;;1.83;;
19388;SDS011;9830;41.876;23.474;2022-12-07T06:44:18;3.97;;;1.90;;
19388;SDS011;9830;41.876;23.474;2022-12-07T06:46:45;8.07;;;1.67;;
19388;SDS011;9830;41.876;23.474;2022-12-07T06:49:11;3.70;;;1.33;;
19388;SDS011;9830;41.876;23.474;2022-12-07T06:51:37;3.13;;;1.97;;
19388;SDS011;9830;41.876;23.474;2022-12-07T06:54:06;5.33;;;2.07;;
19388;SDS011;9830;41.876;23.474;2022-12-07T06:56:33;7.43;;;3.40;;
19388;SDS011;9830;41.876;23.474;2022-12-07T06:58:59;5.63;;;2.50;;
19388;SDS011;9830;41.876;23.474;2022-12-07T07:01:24;1.60;;;1.50;;
19388;SDS011;9830;41.876;23.474;2022-12-07T07:03:50;7.13;;;3.43;;
19388;SDS011;9830;41.876;23.474;2022-12-07T07:06:16;2.57;;;2.37;;
19388;SDS011;9830;41.876;23.474;2022-12-07T07:08:41;4.13;;;2.23;;
19388;SDS011;9830;41.876;23.474;2022-12-07T07:11:07;6.47;;;3.20;;
19388;SDS011;9830;41.876;23.474;2022-12-07T07:13:34;1.40;;;1.27;;
19388;SDS011;9830;41.876;23.474;2022-12-07T07:16:00;2.50;;;1.73;;
19388;SDS011;9830;41.876;23.474;2022-12-07T07:18:26;8.67;;;2.97;;
19388;SDS011;9830;41.876;23.474;2022-12-07T07:20:52;4.33;;;2.83;;
19388;SDS011;9830;41.876;23.474;2022-12-07T07:23:18;27.63;;;4.40;;
19388;SDS011;9830;41.876;23.474;2022-12-07T07:25:45;2.83;;;2.43;;
19388;SDS011;9830;41.876;23.474;2022-12-07T07:28:11;2.30;;;1.10;;
19388;SDS011;9830;41.876;23.474;2022-12-07T07:30:37;3.57;;;2.40;;
19388;SDS011;9830;41.876;23.474;2022-12-07T07:33:03;40.67;;;2.83;;
19388;SDS011;9830;41.876;23.474;2022-12-07T07:35:30;1.97;;;1.87;;
19388;SDS011;9830;41.876;23.474;2022-12-07T07:37:57;5.00;;;2.37;;
19388;SDS011;9830;41.876;23.474;2022-12-07T07:40:23;13.47;;;3.67;;
19388;SDS011;9830;41.876;23.474;2022-12-07T07:42:49;8.43;;;3.63;;
19388;SDS011;9830;41.876;23.474;2022-12-07T07:45:16;4.93;;;3.87;;
19388;SDS011;9830;41.876;23.474;2022-12-07T07:47:43;5.30;;;3.77;;
19388;SDS011;9830;41.876;23.474;2022-12-07T07:50:08;8.03;;;4.60;;
19388;SDS011;9830;41.876;23.474;2022-12-07T07:52:34;9.73;;;3.97;;
19388;SDS011;9830;41.876;23.474;2022-12-07T07:55:00;10.27;;;6.10;;
19388;SDS011;9830;41.876;23.474;2022-12-07T07:57:26;9.43;;;6.33;;
19388;SDS011;9830;41.876;23.474;2022-12-07T07:59:52;11.13;;;6.70;;
19388;SDS011;9830;41.876;23.474;2022-12-07T08:02:18;8.17;;;4.20;;
19388;SDS011;9830;41.876;23.474;2022-12-07T08:04:45;17.17;;;5.43;;
19388;SDS011;9830;41.876;23.474;2022-12-07T08:07:13;4.33;;;2.93;;
19388;SDS011;9830;41.876;23.474;2022-12-07T08:09:39;2.83;;;2.20;;
19388;SDS011;9830;41.876;23.474;2022-12-07T08:12:05;1.90;;;1.03;;
19388;SDS011;9830;41.876;23.474;2022-12-07T08:14:31;13.87;;;3.83;;
19388;SDS011;9830;41.876;23.474;2022-12-07T08:16:57;7.10;;;2.80;;
19388;SDS011;9830;41.876;23.474;2022-12-07T08:19:23;1.73;;;1.63;;
19388;SDS011;9830;41.876;23.474;2022-12-07T08:21:49;1.37;;;1.27;;
19388;SDS011;9830;41.876;23.474;2022-12-07T08:24:15;1.87;;;1.77;;
19388;SDS011;9830;41.876;23.474;2022-12-07T08:26:41;7.70;;;2.27;;
19388;SDS011;9830;41.876;23.474;2022-12-07T08:29:07;3.00;;;1.53;;
19388;SDS011;9830;41.876;23.474;2022-12-07T08:31:33;1.10;;;1.07;;
19388;SDS011;9830;41.876;23.474;2022-12-07T08:33:59;3.80;;;1.43;;
19388;SDS011;9830;41.876;23.474;2022-12-07T08:36:25;4.53;;;1.73;;
19388;SDS011;9830;41.876;23.474;2022-12-07T08:38:51;0.40;;;0.40;;
19388;SDS011;9830;41.876;23.474;2022-12-07T08:41:16;1.73;;;1.60;;
19388;SDS011;9830;41.876;23.474;2022-12-07T08:43:42;2.30;;;1.83;;
19388;SDS011;9830;41.876;23.474;2022-12-07T08:46:18;5.83;;;1.00;;
19388;SDS011;9830;41.876;23.474;2022-12-07T08:51:21;2.30;;;1.30;;
19388;SDS011;9830;41.876;23.474;2022-12-07T08:53:48;2.83;;;2.13;;
19388;SDS011;9830;41.876;23.474;2022-12-07T08:56:16;2.37;;;2.17;;
19388;SDS011;9830;41.876;23.474;2022-12-07T08:58:41;2.93;;;1.73;;
19388;SDS011;9830;41.876;23.474;2022-12-07T09:01:08;3.23;;;2.37;;
19388;SDS011;9830;41.876;23.474;2022-12-07T09:03:34;4.43;;;1.80;;
19388;SDS011;9830;41.876;23.474;2022-12-07T09:06:00;1.50;;;1.30;;
19388;SDS011;9830;41.876;23.474;2022-12-07T09:08:37;3.83;;;1.90;;
19388;SDS011;9830;41.876;23.474;2022-12-07T09:11:07;1.30;;;1.20;;
19388;SDS011;9830;41.876;23.474;2022-12-07T09:13:32;0.80;;;0.80;;
19388;SDS011;9830;41.876;23.474;2022-12-07T09:15:58;2.73;;;1.63;;
19388;SDS011;9830;41.876;23.474;2022-12-07T09:18:24;4.80;;;1.53;;
19388;SDS011;9830;41.876;23.474;2022-12-07T09:20:50;1.53;;;1.50;;
19388;SDS011;9830;41.876;23.474;2022-12-07T09:23:16;1.43;;;1.33;;
19388;SDS011;9830;41.876;23.474;2022-12-07T09:25:41;1.40;;;1.30;;
19388;SDS011;9830;41.876;23.474;2022-12-07T09:28:07;2.23;;;1.97;;
19388;SDS011;9830;41.876;23.474;2022-12-07T09:30:33;1.87;;;1.43;;
19388;SDS011;9830;41.876;23.474;2022-12-07T09:32:59;0.60;;;0.60;;
19388;SDS011;9830;41.876;23.474;2022-12-07T09:35:25;3.43;;;2.30;;
19388;SDS011;9830;41.876;23.474;2022-12-07T09:37:51;2.77;;;1.60;;
19388;SDS011;9830;41.876;23.474;2022-12-07T09:40:17;5.83;;;2.30;;
19388;SDS011;9830;41.876;23.474;2022-12-07T09:42:47;2.30;;;2.10;;
19388;SDS011;9830;41.876;23.474;2022-12-07T09:45:21;1.33;;;1.33;;
19388;SDS011;9830;41.876;23.474;2022-12-07T09:47:49;3.00;;;2.70;;
19388;SDS011;9830;41.876;23.474;2022-12-07T09:50:16;5.63;;;2.43;;
19388;SDS011;9830;41.876;23.474;2022-12-07T09:52:46;2.40;;;1.30;;
19388;SDS011;9830;41.876;23.474;2022-12-07T09:55:15;1.20;;;1.03;;
19388;SDS011;9830;41.876;23.474;2022-12-07T09:57:45;1.07;;;1.07;;
19388;SDS011;9830;41.876;23.474;2022-12-07T10:00:14;5.10;;;1.63;;
19388;SDS011;9830;41.876;23.474;2022-12-07T10:02:43;1.33;;;1.23;;
19388;SDS011;9830;41.876;23.474;2022-12-07T10:05:13;5.43;;;1.30;;
19388;SDS011;9830;41.876;23.474;2022-12-07T10:07:42;1.77;;;1.67;;
19388;SDS011;9830;41.876;23.474;2022-12-07T10:10:15;2.97;;;1.87;;
19388;SDS011;9830;41.876;23.474;2022-12-07T10:12:54;0.77;;;0.77;;
19388;SDS011;9830;41.876;23.474;2022-12-07T10:21:12;1.30;;;1.20;;
19388;SDS011;9830;41.876;23.474;2022-12-07T10:26:36;2.50;;;1.07;;
19388;SDS011;9830;41.876;23.474;2022-12-07T10:29:15;0.90;;;0.90;;
19388;SDS011;9830;41.876;23.474;2022-12-07T10:32:29;0.10;;;0.10;;
19388;SDS011;9830;41.876;23.474;2022-12-07T10:34:46;0.97;;;0.83;;
19388;SDS011;9830;41.876;23.474;2022-12-07T10:39:52;0.80;;;0.80;;
19388;SDS011;9830;41.876;23.474;2022-12-07T10:42:26;0.50;;;0.50;;
19388;SDS011;9830;41.876;23.474;2022-12-07T11:04:15;1.30;;;1.30;;
19388;SDS011;9830;41.876;23.474;2022-12-07T11:17:33;0.57;;;0.57;;
19388;SDS011;9830;41.876;23.474;2022-12-07T11:26:05;1.20;;;1.10;;
19388;SDS011;9830;41.876;23.474;2022-12-07T11:29:15;1.40;;;1.27;;
19388;SDS011;9830;41.876;23.474;2022-12-07T11:35:03;6.83;;;2.03;;
19388;SDS011;9830;41.876;23.474;2022-12-07T11:37:33;0.27;;;0.27;;
19388;SDS011;9830;41.876;23.474;2022-12-07T11:40:05;0.57;;;0.57;;
19388;SDS011;9830;41.876;23.474;2022-12-07T11:42:44;2.27;;;1.77;;
19388;SDS011;9830;41.876;23.474;2022-12-07T11:45:29;0.20;;;0.20;;
19388;SDS011;9830;41.876;23.474;2022-12-07T11:53:19;0.77;;;0.77;;
19388;SDS011;9830;41.876;23.474;2022-12-07T11:55:56;0.43;;;0.43;;
19388;SDS011;9830;41.876;23.474;2022-12-07T12:06:43;1.57;;;0.97;;
19388;SDS011;9830;41.876;23.474;2022-12-07T12:17:05;1.20;;;1.10;;
19388;SDS011;9830;41.876;23.474;2022-12-07T12:19:38;1.77;;;1.03;;
19388;SDS011;9830;41.876;23.474;2022-12-07T12:22:20;0.27;;;0.27;;
19388;SDS011;9830;41.876;23.474;2022-12-07T12:24:50;2.43;;;0.80;;
19388;SDS011;9830;41.876;23.474;2022-12-07T12:27:27;1.93;;;1.30;;
19388;SDS011;9830;41.876;23.474;2022-12-07T12:30:01;2.13;;;0.93;;
19388;SDS011;9830;41.876;23.474;2022-12-07T12:32:39;2.33;;;1.60;;
19388;SDS011;9830;41.876;23.474;2022-12-07T12:40:50;4.47;;;2.20;;
19388;SDS011;9830;41.876;23.474;2022-12-07T12:51:44;5.17;;;2.37;;
19388;SDS011;9830;41.876;23.474;2022-12-07T12:54:21;7.83;;;3.13;;
19388;SDS011;9830;41.876;23.474;2022-12-07T13:04:59;7.80;;;1.77;;
19388;SDS011;9830;41.876;23.474;2022-12-07T13:07:59;7.80;;;3.60;;
19388;SDS011;9830;41.876;23.474;2022-12-07T13:23:38;2.20;;;1.23;;
19388;SDS011;9830;41.876;23.474;2022-12-07T13:26:15;5.70;;;2.20;;
19388;SDS011;9830;41.876;23.474;2022-12-07T13:29:11;2.33;;;1.80;;
19388;SDS011;9830;41.876;23.474;2022-12-07T13:31:54;1.67;;;1.57;;
19388;SDS011;9830;41.876;23.474;2022-12-07T13:34:35;2.47;;;0.93;;
19388;SDS011;9830;41.876;23.474;2022-12-07T13:37:15;8.00;;;2.97;;
19388;SDS011;9830;41.876;23.474;2022-12-07T13:39:50;0.93;;;0.63;;
19388;SDS011;9830;41.876;23.474;2022-12-07T13:42:20;0.73;;;0.73;;
19388;SDS011;9830;41.876;23.474;2022-12-07T13:44:52;0.97;;;0.87;;
19388;SDS011;9830;41.876;23.474;2022-12-07T13:47:20;4.43;;;1.43;;
19388;SDS011;9830;41.876;23.474;2022-12-07T13:49:49;1.13;;;0.77;;
19388;SDS011;9830;41.876;23.474;2022-12-07T13:52:17;0.67;;;0.67;;
19388;SDS011;9830;41.876;23.474;2022-12-07T13:57:23;1.83;;;1.73;;
19388;SDS011;9830;41.876;23.474;2022-12-07T13:59:50;1.10;;;1.10;;
19388;SDS011;9830;41.876;23.474;2022-12-07T14:02:18;1.53;;;0.83;;
19388;SDS011;9830;41.876;23.474;2022-12-07T14:04:45;4.63;;;1.17;;
19388;SDS011;9830;41.876;23.474;2022-12-07T14:07:27;3.80;;;1.37;;
19388;SDS011;9830;41.876;23.474;2022-12-07T14:09:57;4.47;;;1.60;;
19388;SDS011;9830;41.876;23.474;2022-12-07T14:12:24;5.20;;;2.50;;
19388;SDS011;9830;41.876;23.474;2022-12-07T14:14:51;2.23;;;0.93;;
19388;SDS011;9830;41.876;23.474;2022-12-07T14:17:21;7.20;;;1.63;;
19388;SDS011;9830;41.876;23.474;2022-12-07T14:19:58;1.07;;;1.07;;
19388;SDS011;9830;41.876;23.474;2022-12-07T14:22:30;4.73;;;1.33;;
19388;SDS011;9830;41.876;23.474;2022-12-07T14:27:29;3.27;;;1.27;;
19388;SDS011;9830;41.876;23.474;2022-12-07T14:29:59;1.37;;;1.00;;
19388;SDS011;9830;41.876;23.474;2022-12-07T14:32:27;1.43;;;1.27;;
19388;SDS011;9830;41.876;23.474;2022-12-07T14:35:01;6.90;;;2.93;;
19388;SDS011;9830;41.876;23.474;2022-12-07T14:37:38;1.20;;;1.00;;
19388;SDS011;9830;41.876;23.474;2022-12-07T14:40:05;1.90;;;0.83;;
19388;SDS011;9830;41.876;23.474;2022-12-07T14:42:32;1.83;;;1.07;;
19388;SDS011;9830;41.876;23.474;2022-12-07T14:44:59;2.33;;;1.20;;
19388;SDS011;9830;41.876;23.474;2022-12-07T14:47:25;1.27;;;1.27;;
19388;SDS011;9830;41.876;23.474;2022-12-07T14:49:51;2.17;;;1.63;;
19388;SDS011;9830;41.876;23.474;2022-12-07T14:52:21;22.10;;;11.83;;
19388;SDS011;9830;41.876;23.474;2022-12-07T14:54:49;15.97;;;9.13;;
19388;SDS011;9830;41.876;23.474;2022-12-07T14:57:15;17.07;;;4.03;;
19388;SDS011;9830;41.876;23.474;2022-12-07T14:59:41;3.30;;;1.50;;
19388;SDS011;9830;41.876;23.474;2022-12-07T15:02:08;2.70;;;2.50;;
19388;SDS011;9830;41.876;23.474;2022-12-07T15:04:36;0.67;;;0.67;;
19388;SDS011;9830;41.876;23.474;2022-12-07T15:07:03;0.73;;;0.73;;
19388;SDS011;9830;41.876;23.474;2022-12-07T15:09:30;0.33;;;0.33;;
19388;SDS011;9830;41.876;23.474;2022-12-07T15:11:55;0.70;;;0.70;;
19388;SDS011;9830;41.876;23.474;2022-12-07T15:14:21;0.93;;;0.90;;
19388;SDS011;9830;41.876;23.474;2022-12-07T15:16:47;3.50;;;1.37;;
19388;SDS011;9830;41.876;23.474;2022-12-07T15:19:20;1.40;;;1.03;;
19388;SDS011;9830;41.876;23.474;2022-12-07T15:21:51;0.70;;;0.67;;
19388;SDS011;9830;41.876;23.474;2022-12-07T15:24:17;1.33;;;1.23;;
19388;SDS011;9830;41.876;23.474;2022-12-07T15:26:43;0.40;;;0.40;;
19388;SDS011;9830;41.876;23.474;2022-12-07T15:29:10;0.37;;;0.37;;
19388;SDS011;9830;41.876;23.474;2022-12-07T15:31:37;1.57;;;1.47;;
19388;SDS011;9830;41.876;23.474;2022-12-07T15:34:03;1.50;;;1.17;;
19388;SDS011;9830;41.876;23.474;2022-12-07T15:36:30;6.53;;;1.73;;
19388;SDS011;9830;41.876;23.474;2022-12-07T15:38:57;0.60;;;0.60;;
19388;SDS011;9830;41.876;23.474;2022-12-07T15:41:23;0.70;;;0.70;;
19388;SDS011;9830;41.876;23.474;2022-12-07T15:43:49;2.57;;;1.50;;
19388;SDS011;9830;41.876;23.474;2022-12-07T15:46:34;2.57;;;1.30;;
19388;SDS011;9830;41.876;23.474;2022-12-07T15:49:02;1.00;;;0.90;;
19388;SDS011;9830;41.876;23.474;2022-12-07T15:51:29;2.07;;;1.03;;
19388;SDS011;9830;41.876;23.474;2022-12-07T15:53:55;2.40;;;1.37;;
19388;SDS011;9830;41.876;23.474;2022-12-07T15:56:23;2.17;;;1.33;;
19388;SDS011;9830;41.876;23.474;2022-12-07T15:58:49;8.67;;;4.30;;
19388;SDS011;9830;41.876;23.474;2022-12-07T16:01:18;22.03;;;4.07;;
19388;SDS011;9830;41.876;23.474;2022-12-07T16:03:45;2.90;;;1.40;;
19388;SDS011;9830;41.876;23.474;2022-12-07T16:06:15;8.03;;;1.57;;
19388;SDS011;9830;41.876;23.474;2022-12-07T16:08:42;2.10;;;1.57;;
19388;SDS011;9830;41.876;23.474;2022-12-07T16:11:09;9.10;;;2.07;;
19388;SDS011;9830;41.876;23.474;2022-12-07T16:13:35;0.67;;;0.67;;
19388;SDS011;9830;41.876;23.474;2022-12-07T16:16:07;1.20;;;0.63;;
19388;SDS011;9830;41.876;23.474;2022-12-07T16:18:38;0.50;;;0.50;;
19388;SDS011;9830;41.876;23.474;2022-12-07T16:21:04;1.23;;;0.70;;
19388;SDS011;9830;41.876;23.474;2022-12-07T16:23:30;2.13;;;1.93;;
19388;SDS011;9830;41.876;23.474;2022-12-07T16:26:06;3.20;;;1.67;;
19388;SDS011;9830;41.876;23.474;2022-12-07T16:28:33;0.97;;;0.83;;
19388;SDS011;9830;41.876;23.474;2022-12-07T16:31:00;2.50;;;2.00;;
19388;SDS011;9830;41.876;23.474;2022-12-07T16:33:39;0.77;;;0.77;;
19388;SDS011;9830;41.876;23.474;2022-12-07T16:36:07;1.40;;;1.30;;
19388;SDS011;9830;41.876;23.474;2022-12-07T16:38:34;0.80;;;0.80;;
19388;SDS011;9830;41.876;23.474;2022-12-07T16:41:00;1.33;;;1.23;;
19388;SDS011;9830;41.876;23.474;2022-12-07T16:43:26;3.27;;;1.80;;
19388;SDS011;9830;41.876;23.474;2022-12-07T16:45:52;6.33;;;1.60;;
19388;SDS011;9830;41.876;23.474;2022-12-07T16:48:18;1.80;;;1.70;;
19388;SDS011;9830;41.876;23.474;2022-12-07T16:50:44;1.47;;;1.00;;
19388;SDS011;9830;41.876;23.474;2022-12-07T16:53:10;2.30;;;0.67;;
19388;SDS011;9830;41.876;23.474;2022-12-07T16:55:37;0.83;;;0.83;;
19388;SDS011;9830;41.876;23.474;2022-12-07T16:58:04;2.03;;;0.80;;
19388;SDS011;9830;41.876;23.474;2022-12-07T17:00:31;1.50;;;0.50;;
19388;SDS011;9830;41.876;23.474;2022-12-07T17:02:57;0.90;;;0.90;;
19388;SDS011;9830;41.876;23.474;2022-12-07T17:05:22;4.57;;;1.10;;
19388;SDS011;9830;41.876;23.474;2022-12-07T17:07:49;2.23;;;1.23;;
19388;SDS011;9830;41.876;23.474;2022-12-07T17:10:15;0.70;;;0.57;;
19388;SDS011;9830;41.876;23.474;2022-12-07T17:12:41;1.00;;;0.83;;
19388;SDS011;9830;41.876;23.474;2022-12-07T17:15:07;0.73;;;0.73;;
19388;SDS011;9830;41.876;23.474;2022-12-07T17:17:53;0.73;;;0.43;;
19388;SDS011;9830;41.876;23.474;2022-12-07T17:20:21;0.40;;;0.40;;
19388;SDS011;9830;41.876;23.474;2022-12-07T17:22:48;0.30;;;0.30;;
19388;SDS011;9830;41.876;23.474;2022-12-07T17:25:15;0.33;;;0.20;;
19388;SDS011;9830;41.876;23.474;2022-12-07T17:27:41;0.30;;;0.30;;
19388;SDS011;9830;41.876;23.474;2022-12-07T17:30:07;0.70;;;0.70;;
19388;SDS011;9830;41.876;23.474;2022-12-07T17:32:33;1.03;;;0.77;;
19388;SDS011;9830;41.876;23.474;2022-12-07T17:34:59;0.63;;;0.63;;